sensor_id;sensor_type;location;lat;lon;timestamp;temperature;humidity
75210;DHT22;63796;53.136;14.882;2023-04-22T00:01:00;10.00;99.90
75210;DHT22;63796;53.136;14.882;2023-04-22T00:03:28;10.00;99.90
75210;DHT22;63796;53.136;14.882;2023-04-22T00:05:55;10.00;99.90
75210;DHT22;63796;53.136;14.882;2023-04-22T00:08:23;10.00;99.90
75210;DHT22;63796;53.136;14.882;2023-04-22T00:10:51;10.00;99.90
75210;DHT22;63796;53.136;14.882;2023-04-22T00:13:18;10.00;99.90
75210;DHT22;63796;53.136;14.882;2023-04-22T00:15:46;9.80;99.90
75210;DHT22;63796;53.136;14.882;2023-04-22T00:18:13;9.60;99.90
75210;DHT22;63796;53.136;14.882;2023-04-22T00:20:41;9.60;99.90
75210;DHT22;63796;53.136;14.882;2023-04-22T00:23:09;9.70;99.90
75210;DHT22;63796;53.136;14.882;2023-04-22T00:25:38;9.40;99.90
75210;DHT22;63796;53.136;14.882;2023-04-22T00:28:06;9.10;99.90
75210;DHT22;63796;53.136;14.882;2023-04-22T00:30:34;9.20;99.90
75210;DHT22;63796;53.136;14.882;2023-04-22T00:33:01;9.30;99.90
75210;DHT22;63796;53.136;14.882;2023-04-22T00:35:29;9.30;99.90
75210;DHT22;63796;53.136;14.882;2023-04-22T00:37:56;9.10;99.90
75210;DHT22;63796;53.136;14.882;2023-04-22T00:40:24;9.10;99.90
75210;DHT22;63796;53.136;14.882;2023-04-22T00:42:51;9.10;99.90
75210;DHT22;63796;53.136;14.882;2023-04-22T00:45:19;9.00;99.90
75210;DHT22;63796;53.136;14.882;2023-04-22T00:47:47;9.00;99.90
75210;DHT22;63796;53.136;14.882;2023-04-22T00:50:15;8.90;99.90
75210;DHT22;63796;53.136;14.882;2023-04-22T00:52:43;8.90;99.90
75210;DHT22;63796;53.136;14.882;2023-04-22T00:55:10;8.90;99.90
75210;DHT22;63796;53.136;14.882;2023-04-22T00:57:38;8.90;99.90
75210;DHT22;63796;53.136;14.882;2023-04-22T01:00:07;8.80;99.90
75210;DHT22;63796;53.136;14.882;2023-04-22T01:02:37;8.80;99.90
75210;DHT22;63796;53.136;14.882;2023-04-22T01:05:06;8.90;99.90
75210;DHT22;63796;53.136;14.882;2023-04-22T01:07:37;8.90;99.90
75210;DHT22;63796;53.136;14.882;2023-04-22T01:10:04;8.80;99.90
75210;DHT22;63796;53.136;14.882;2023-04-22T01:12:32;8.80;99.90
75210;DHT22;63796;53.136;14.882;2023-04-22T01:15:00;8.50;99.90
75210;DHT22;63796;53.136;14.882;2023-04-22T01:17:30;8.50;99.90
75210;DHT22;63796;53.136;14.882;2023-04-22T01:19:59;8.50;99.90
75210;DHT22;63796;53.136;14.882;2023-04-22T01:22:34;8.40;99.90
75210;DHT22;63796;53.136;14.882;2023-04-22T01:25:06;8.50;99.90
75210;DHT22;63796;53.136;14.882;2023-04-22T01:27:35;8.50;99.90
75210;DHT22;63796;53.136;14.882;2023-04-22T01:30:03;8.50;99.90
75210;DHT22;63796;53.136;14.882;2023-04-22T01:32:32;8.50;99.90
75210;DHT22;63796;53.136;14.882;2023-04-22T01:34:59;8.30;99.90
75210;DHT22;63796;53.136;14.882;2023-04-22T01:37:27;8.20;99.90
75210;DHT22;63796;53.136;14.882;2023-04-22T01:39:56;8.00;99.90
75210;DHT22;63796;53.136;14.882;2023-04-22T01:42:26;8.00;99.90
75210;DHT22;63796;53.136;14.882;2023-04-22T01:44:54;8.10;99.90
75210;DHT22;63796;53.136;14.882;2023-04-22T01:47:21;8.20;99.90
75210;DHT22;63796;53.136;14.882;2023-04-22T01:49:49;8.20;99.90
75210;DHT22;63796;53.136;14.882;2023-04-22T01:52:17;8.20;99.90
75210;DHT22;63796;53.136;14.882;2023-04-22T01:54:45;8.00;99.90
75210;DHT22;63796;53.136;14.882;2023-04-22T01:57:14;8.10;99.90
75210;DHT22;63796;53.136;14.882;2023-04-22T01:59:42;8.20;99.90
75210;DHT22;63796;53.136;14.882;2023-04-22T02:02:09;8.20;99.90
75210;DHT22;63796;53.136;14.882;2023-04-22T02:04:37;8.30;99.90
75210;DHT22;63796;53.136;14.882;2023-04-22T02:07:04;8.20;99.90
75210;DHT22;63796;53.136;14.882;2023-04-22T02:09:32;8.30;99.90
75210;DHT22;63796;53.136;14.882;2023-04-22T02:12:00;8.30;99.90
75210;DHT22;63796;53.136;14.882;2023-04-22T02:14:27;8.10;99.90
75210;DHT22;63796;53.136;14.882;2023-04-22T02:16:54;7.90;99.90
75210;DHT22;63796;53.136;14.882;2023-04-22T02:19:22;7.90;99.90
75210;DHT22;63796;53.136;14.882;2023-04-22T02:21:49;7.70;99.90
75210;DHT22;63796;53.136;14.882;2023-04-22T02:24:17;7.90;99.90
75210;DHT22;63796;53.136;14.882;2023-04-22T02:26:44;8.00;99.90
75210;DHT22;63796;53.136;14.882;2023-04-22T02:29:13;7.80;99.90
75210;DHT22;63796;53.136;14.882;2023-04-22T02:31:42;7.60;99.90
75210;DHT22;63796;53.136;14.882;2023-04-22T02:34:09;7.60;99.90
75210;DHT22;63796;53.136;14.882;2023-04-22T02:36:36;7.70;99.90
75210;DHT22;63796;53.136;14.882;2023-04-22T02:39:04;7.70;99.90
75210;DHT22;63796;53.136;14.882;2023-04-22T02:41:32;7.60;99.90
75210;DHT22;63796;53.136;14.882;2023-04-22T02:43:59;7.50;99.90
75210;DHT22;63796;53.136;14.882;2023-04-22T02:46:26;7.30;99.90
75210;DHT22;63796;53.136;14.882;2023-04-22T02:48:54;7.30;99.90
75210;DHT22;63796;53.136;14.882;2023-04-22T02:51:21;7.30;99.90
75210;DHT22;63796;53.136;14.882;2023-04-22T02:53:49;7.30;99.90
75210;DHT22;63796;53.136;14.882;2023-04-22T02:56:16;7.30;99.90
75210;DHT22;63796;53.136;14.882;2023-04-22T02:58:44;7.30;99.90
75210;DHT22;63796;53.136;14.882;2023-04-22T03:01:12;7.30;99.90
75210;DHT22;63796;53.136;14.882;2023-04-22T03:03:39;7.30;99.90
75210;DHT22;63796;53.136;14.882;2023-04-22T03:06:07;7.10;99.90
75210;DHT22;63796;53.136;14.882;2023-04-22T03:08:34;6.80;99.90
75210;DHT22;63796;53.136;14.882;2023-04-22T03:11:02;6.80;99.90
75210;DHT22;63796;53.136;14.882;2023-04-22T03:13:30;6.70;99.90
75210;DHT22;63796;53.136;14.882;2023-04-22T03:15:57;6.70;99.90
75210;DHT22;63796;53.136;14.882;2023-04-22T03:18:25;6.60;99.90
75210;DHT22;63796;53.136;14.882;2023-04-22T03:20:52;6.70;99.90
75210;DHT22;63796;53.136;14.882;2023-04-22T03:23:19;6.70;99.90
75210;DHT22;63796;53.136;14.882;2023-04-22T03:25:47;6.60;99.90
75210;DHT22;63796;53.136;14.882;2023-04-22T03:28:14;6.50;99.90
75210;DHT22;63796;53.136;14.882;2023-04-22T03:30:41;6.60;99.90
75210;DHT22;63796;53.136;14.882;2023-04-22T03:33:09;6.50;99.90
75210;DHT22;63796;53.136;14.882;2023-04-22T03:35:37;6.60;99.90
75210;DHT22;63796;53.136;14.882;2023-04-22T03:38:04;6.80;99.90
75210;DHT22;63796;53.136;14.882;2023-04-22T03:40:32;6.90;99.90
75210;DHT22;63796;53.136;14.882;2023-04-22T03:42:59;6.80;99.90
75210;DHT22;63796;53.136;14.882;2023-04-22T03:45:27;6.60;99.90
75210;DHT22;63796;53.136;14.882;2023-04-22T03:47:55;6.40;99.90
75210;DHT22;63796;53.136;14.882;2023-04-22T03:50:23;6.40;99.90
75210;DHT22;63796;53.136;14.882;2023-04-22T03:52:51;6.40;99.90
75210;DHT22;63796;53.136;14.882;2023-04-22T03:55:18;6.30;99.90
75210;DHT22;63796;53.136;14.882;2023-04-22T03:57:46;6.40;99.90
75210;DHT22;63796;53.136;14.882;2023-04-22T04:00:14;6.30;99.90
75210;DHT22;63796;53.136;14.882;2023-04-22T04:02:42;6.20;99.90
75210;DHT22;63796;53.136;14.882;2023-04-22T04:05:10;6.00;99.90
75210;DHT22;63796;53.136;14.882;2023-04-22T04:07:38;6.00;99.90
75210;DHT22;63796;53.136;14.882;2023-04-22T04:10:05;6.00;99.90
75210;DHT22;63796;53.136;14.882;2023-04-22T04:12:33;6.00;99.90
75210;DHT22;63796;53.136;14.882;2023-04-22T04:15:01;6.10;99.90
75210;DHT22;63796;53.136;14.882;2023-04-22T04:17:28;6.10;99.90
75210;DHT22;63796;53.136;14.882;2023-04-22T04:19:56;6.20;99.90
75210;DHT22;63796;53.136;14.882;2023-04-22T04:22:23;6.40;99.90
75210;DHT22;63796;53.136;14.882;2023-04-22T04:24:51;6.70;99.90
75210;DHT22;63796;53.136;14.882;2023-04-22T04:27:22;6.90;99.90
75210;DHT22;63796;53.136;14.882;2023-04-22T04:29:49;7.10;99.90
75210;DHT22;63796;53.136;14.882;2023-04-22T04:32:18;7.10;99.90
75210;DHT22;63796;53.136;14.882;2023-04-22T04:34:46;7.30;99.90
75210;DHT22;63796;53.136;14.882;2023-04-22T04:37:13;7.50;99.90
75210;DHT22;63796;53.136;14.882;2023-04-22T04:39:42;7.80;99.90
75210;DHT22;63796;53.136;14.882;2023-04-22T04:42:10;8.00;99.90
75210;DHT22;63796;53.136;14.882;2023-04-22T04:44:38;8.10;99.90
75210;DHT22;63796;53.136;14.882;2023-04-22T04:47:05;8.20;99.90
75210;DHT22;63796;53.136;14.882;2023-04-22T04:49:32;8.20;99.90
75210;DHT22;63796;53.136;14.882;2023-04-22T04:52:06;8.10;99.90
75210;DHT22;63796;53.136;14.882;2023-04-22T04:54:37;8.30;99.90
75210;DHT22;63796;53.136;14.882;2023-04-22T04:57:05;8.50;99.90
75210;DHT22;63796;53.136;14.882;2023-04-22T04:59:32;8.80;99.90
75210;DHT22;63796;53.136;14.882;2023-04-22T05:02:00;9.10;99.90
75210;DHT22;63796;53.136;14.882;2023-04-22T05:04:28;9.30;99.90
75210;DHT22;63796;53.136;14.882;2023-04-22T05:06:56;9.60;99.90
75210;DHT22;63796;53.136;14.882;2023-04-22T05:09:23;10.80;99.90
75210;DHT22;63796;53.136;14.882;2023-04-22T05:11:50;11.70;99.90
75210;DHT22;63796;53.136;14.882;2023-04-22T05:14:17;12.30;99.90
75210;DHT22;63796;53.136;14.882;2023-04-22T05:16:45;13.10;99.90
75210;DHT22;63796;53.136;14.882;2023-04-22T05:19:13;14.90;96.90
75210;DHT22;63796;53.136;14.882;2023-04-22T05:21:40;16.80;91.70
75210;DHT22;63796;53.136;14.882;2023-04-22T05:24:07;17.60;86.40
75210;DHT22;63796;53.136;14.882;2023-04-22T05:26:35;18.60;78.40
75210;DHT22;63796;53.136;14.882;2023-04-22T05:29:02;19.40;74.70
75210;DHT22;63796;53.136;14.882;2023-04-22T05:31:30;19.50;72.90
75210;DHT22;63796;53.136;14.882;2023-04-22T05:33:57;19.60;71.50
75210;DHT22;63796;53.136;14.882;2023-04-22T05:36:25;19.30;71.60
75210;DHT22;63796;53.136;14.882;2023-04-22T05:38:57;18.50;73.40
75210;DHT22;63796;53.136;14.882;2023-04-22T05:41:24;16.20;81.60
75210;DHT22;63796;53.136;14.882;2023-04-22T05:43:52;14.40;87.50
75210;DHT22;63796;53.136;14.882;2023-04-22T05:46:19;13.70;91.70
75210;DHT22;63796;53.136;14.882;2023-04-22T05:48:46;13.50;92.40
75210;DHT22;63796;53.136;14.882;2023-04-22T05:51:14;13.10;94.10
75210;DHT22;63796;53.136;14.882;2023-04-22T05:53:42;13.00;95.70
75210;DHT22;63796;53.136;14.882;2023-04-22T05:56:09;13.10;96.00
75210;DHT22;63796;53.136;14.882;2023-04-22T05:58:36;13.20;96.90
75210;DHT22;63796;53.136;14.882;2023-04-22T06:01:04;13.50;97.40
75210;DHT22;63796;53.136;14.882;2023-04-22T06:03:31;13.70;97.90
75210;DHT22;63796;53.136;14.882;2023-04-22T06:05:59;13.90;97.00
75210;DHT22;63796;53.136;14.882;2023-04-22T06:08:26;14.20;96.80
75210;DHT22;63796;53.136;14.882;2023-04-22T06:10:56;14.40;95.90
75210;DHT22;63796;53.136;14.882;2023-04-22T06:13:24;14.60;95.50
75210;DHT22;63796;53.136;14.882;2023-04-22T06:15:51;15.30;95.90
75210;DHT22;63796;53.136;14.882;2023-04-22T06:18:19;16.60;92.60
75210;DHT22;63796;53.136;14.882;2023-04-22T06:20:46;17.00;90.30
75210;DHT22;63796;53.136;14.882;2023-04-22T06:23:13;17.50;89.50
75210;DHT22;63796;53.136;14.882;2023-04-22T06:25:41;20.00;80.00
75210;DHT22;63796;53.136;14.882;2023-04-22T06:28:09;21.90;71.20
75210;DHT22;63796;53.136;14.882;2023-04-22T06:30:36;21.90;71.80
75210;DHT22;63796;53.136;14.882;2023-04-22T06:33:04;22.20;68.10
75210;DHT22;63796;53.136;14.882;2023-04-22T06:35:31;23.60;61.80
75210;DHT22;63796;53.136;14.882;2023-04-22T06:37:58;23.90;60.40
75210;DHT22;63796;53.136;14.882;2023-04-22T06:40:26;24.50;58.40
75210;DHT22;63796;53.136;14.882;2023-04-22T06:42:53;24.50;58.90
75210;DHT22;63796;53.136;14.882;2023-04-22T06:45:20;24.80;57.70
75210;DHT22;63796;53.136;14.882;2023-04-22T06:47:48;26.20;54.40
75210;DHT22;63796;53.136;14.882;2023-04-22T06:50:15;24.80;56.70
75210;DHT22;63796;53.136;14.882;2023-04-22T06:52:42;26.00;55.30
75210;DHT22;63796;53.136;14.882;2023-04-22T06:55:10;25.90;55.30
75210;DHT22;63796;53.136;14.882;2023-04-22T06:57:37;24.60;55.90
75210;DHT22;63796;53.136;14.882;2023-04-22T07:00:05;25.50;56.00
75210;DHT22;63796;53.136;14.882;2023-04-22T07:02:36;25.70;55.40
75210;DHT22;63796;53.136;14.882;2023-04-22T07:05:03;25.90;55.80
75210;DHT22;63796;53.136;14.882;2023-04-22T07:07:31;26.10;54.60
75210;DHT22;63796;53.136;14.882;2023-04-22T07:09:58;27.50;54.30
75210;DHT22;63796;53.136;14.882;2023-04-22T07:12:26;27.70;53.30
75210;DHT22;63796;53.136;14.882;2023-04-22T07:14:53;26.60;54.40
75210;DHT22;63796;53.136;14.882;2023-04-22T07:17:20;25.80;55.40
75210;DHT22;63796;53.136;14.882;2023-04-22T07:19:48;24.40;56.90
75210;DHT22;63796;53.136;14.882;2023-04-22T07:22:15;24.10;58.90
75210;DHT22;63796;53.136;14.882;2023-04-22T07:24:43;23.80;59.50
75210;DHT22;63796;53.136;14.882;2023-04-22T07:27:10;22.30;62.20
75210;DHT22;63796;53.136;14.882;2023-04-22T07:29:37;21.60;63.00
75210;DHT22;63796;53.136;14.882;2023-04-22T07:32:05;21.00;65.70
75210;DHT22;63796;53.136;14.882;2023-04-22T07:34:33;20.10;70.50
75210;DHT22;63796;53.136;14.882;2023-04-22T07:37:01;20.90;68.70
75210;DHT22;63796;53.136;14.882;2023-04-22T07:39:28;21.00;68.30
75210;DHT22;63796;53.136;14.882;2023-04-22T07:41:55;21.20;67.90
75210;DHT22;63796;53.136;14.882;2023-04-22T07:44:23;20.60;67.90
75210;DHT22;63796;53.136;14.882;2023-04-22T07:46:50;20.80;68.60
75210;DHT22;63796;53.136;14.882;2023-04-22T07:49:18;20.80;69.00
75210;DHT22;63796;53.136;14.882;2023-04-22T07:51:45;21.10;68.50
75210;DHT22;63796;53.136;14.882;2023-04-22T07:54:13;20.90;69.80
75210;DHT22;63796;53.136;14.882;2023-04-22T07:56:40;21.00;68.90
75210;DHT22;63796;53.136;14.882;2023-04-22T07:59:07;20.90;68.00
75210;DHT22;63796;53.136;14.882;2023-04-22T08:01:35;21.20;66.90
75210;DHT22;63796;53.136;14.882;2023-04-22T08:04:02;20.90;67.40
75210;DHT22;63796;53.136;14.882;2023-04-22T08:06:30;20.60;69.30
75210;DHT22;63796;53.136;14.882;2023-04-22T08:08:57;20.70;70.70
75210;DHT22;63796;53.136;14.882;2023-04-22T08:11:25;21.70;69.30
75210;DHT22;63796;53.136;14.882;2023-04-22T08:13:52;22.30;69.30
75210;DHT22;63796;53.136;14.882;2023-04-22T08:16:20;23.00;63.30
75210;DHT22;63796;53.136;14.882;2023-04-22T08:18:47;23.10;62.90
75210;DHT22;63796;53.136;14.882;2023-04-22T08:21:14;23.10;63.80
75210;DHT22;63796;53.136;14.882;2023-04-22T08:23:42;23.30;64.60
75210;DHT22;63796;53.136;14.882;2023-04-22T08:26:09;24.00;62.30
75210;DHT22;63796;53.136;14.882;2023-04-22T08:28:40;23.80;60.60
75210;DHT22;63796;53.136;14.882;2023-04-22T08:31:08;25.00;59.10
75210;DHT22;63796;53.136;14.882;2023-04-22T08:33:40;26.20;58.10
75210;DHT22;63796;53.136;14.882;2023-04-22T08:36:08;28.20;56.50
75210;DHT22;63796;53.136;14.882;2023-04-22T08:38:36;29.60;53.00
75210;DHT22;63796;53.136;14.882;2023-04-22T08:41:04;29.70;50.90
75210;DHT22;63796;53.136;14.882;2023-04-22T08:43:33;30.10;51.00
75210;DHT22;63796;53.136;14.882;2023-04-22T08:46:00;32.30;49.70
75210;DHT22;63796;53.136;14.882;2023-04-22T08:48:28;32.70;47.10
75210;DHT22;63796;53.136;14.882;2023-04-22T08:50:55;32.40;48.30
75210;DHT22;63796;53.136;14.882;2023-04-22T08:53:24;34.80;46.20
75210;DHT22;63796;53.136;14.882;2023-04-22T08:55:51;35.80;44.80
75210;DHT22;63796;53.136;14.882;2023-04-22T08:58:22;34.50;46.20
75210;DHT22;63796;53.136;14.882;2023-04-22T09:00:50;33.00;44.00
75210;DHT22;63796;53.136;14.882;2023-04-22T09:03:18;33.30;44.60
75210;DHT22;63796;53.136;14.882;2023-04-22T09:05:46;34.70;43.30
75210;DHT22;63796;53.136;14.882;2023-04-22T09:08:18;35.20;42.10
75210;DHT22;63796;53.136;14.882;2023-04-22T09:10:45;34.30;44.20
75210;DHT22;63796;53.136;14.882;2023-04-22T09:13:13;33.40;43.70
75210;DHT22;63796;53.136;14.882;2023-04-22T09:15:41;31.00;45.00
75210;DHT22;63796;53.136;14.882;2023-04-22T09:18:08;32.30;44.60
75210;DHT22;63796;53.136;14.882;2023-04-22T09:20:36;33.70;42.80
75210;DHT22;63796;53.136;14.882;2023-04-22T09:23:08;33.00;42.40
75210;DHT22;63796;53.136;14.882;2023-04-22T09:25:37;33.30;42.50
75210;DHT22;63796;53.136;14.882;2023-04-22T09:28:09;33.30;42.40
75210;DHT22;63796;53.136;14.882;2023-04-22T09:30:38;33.70;42.10
75210;DHT22;63796;53.136;14.882;2023-04-22T09:33:05;31.20;43.80
75210;DHT22;63796;53.136;14.882;2023-04-22T09:35:37;30.40;44.50
75210;DHT22;63796;53.136;14.882;2023-04-22T09:38:07;33.50;43.00
75210;DHT22;63796;53.136;14.882;2023-04-22T09:40:36;32.30;43.40
75210;DHT22;63796;53.136;14.882;2023-04-22T09:43:07;32.20;43.40
75210;DHT22;63796;53.136;14.882;2023-04-22T09:45:41;32.50;44.10
75210;DHT22;63796;53.136;14.882;2023-04-22T09:48:13;33.80;40.50
75210;DHT22;63796;53.136;14.882;2023-04-22T09:50:46;32.70;41.90
75210;DHT22;63796;53.136;14.882;2023-04-22T09:53:16;32.60;43.10
75210;DHT22;63796;53.136;14.882;2023-04-22T09:55:46;30.10;44.20
75210;DHT22;63796;53.136;14.882;2023-04-22T09:58:16;33.20;42.70
75210;DHT22;63796;53.136;14.882;2023-04-22T10:00:47;33.00;42.20
75210;DHT22;63796;53.136;14.882;2023-04-22T10:03:20;33.50;40.40
75210;DHT22;63796;53.136;14.882;2023-04-22T10:05:47;34.10;40.00
75210;DHT22;63796;53.136;14.882;2023-04-22T10:08:15;32.10;41.40
75210;DHT22;63796;53.136;14.882;2023-04-22T10:10:43;33.00;40.60
75210;DHT22;63796;53.136;14.882;2023-04-22T10:13:11;30.80;41.70
75210;DHT22;63796;53.136;14.882;2023-04-22T10:15:43;31.50;40.80
75210;DHT22;63796;53.136;14.882;2023-04-22T10:18:20;31.10;42.00
75210;DHT22;63796;53.136;14.882;2023-04-22T10:20:50;31.60;40.80
75210;DHT22;63796;53.136;14.882;2023-04-22T10:23:20;32.10;39.80
75210;DHT22;63796;53.136;14.882;2023-04-22T10:25:51;33.10;43.10
75210;DHT22;63796;53.136;14.882;2023-04-22T10:28:21;32.30;41.60
75210;DHT22;63796;53.136;14.882;2023-04-22T10:30:50;31.60;42.60
75210;DHT22;63796;53.136;14.882;2023-04-22T10:41:28;33.00;39.70
75210;DHT22;63796;53.136;14.882;2023-04-22T10:43:58;32.80;39.50
75210;DHT22;63796;53.136;14.882;2023-04-22T10:49:07;31.00;40.30
75210;DHT22;63796;53.136;14.882;2023-04-22T10:57:06;32.10;40.90
75210;DHT22;63796;53.136;14.882;2023-04-22T10:59:46;33.20;40.80
75210;DHT22;63796;53.136;14.882;2023-04-22T11:02:16;32.50;39.70
75210;DHT22;63796;53.136;14.882;2023-04-22T11:04:44;32.80;39.90
75210;DHT22;63796;53.136;14.882;2023-04-22T11:09:59;32.20;39.50
75210;DHT22;63796;53.136;14.882;2023-04-22T11:15:08;32.40;39.50
75210;DHT22;63796;53.136;14.882;2023-04-22T11:17:40;31.50;39.90
75210;DHT22;63796;53.136;14.882;2023-04-22T11:20:09;30.90;40.90
75210;DHT22;63796;53.136;14.882;2023-04-22T11:22:40;32.20;39.80
75210;DHT22;63796;53.136;14.882;2023-04-22T11:25:09;32.90;39.60
75210;DHT22;63796;53.136;14.882;2023-04-22T11:27:37;32.00;39.30
75210;DHT22;63796;53.136;14.882;2023-04-22T11:30:06;31.70;41.70
75210;DHT22;63796;53.136;14.882;2023-04-22T11:32:39;31.90;40.10
75210;DHT22;63796;53.136;14.882;2023-04-22T11:35:12;30.40;41.80
75210;DHT22;63796;53.136;14.882;2023-04-22T11:37:42;28.60;42.80
75210;DHT22;63796;53.136;14.882;2023-04-22T11:40:12;30.30;40.90
75210;DHT22;63796;53.136;14.882;2023-04-22T11:42:56;32.10;42.10
75210;DHT22;63796;53.136;14.882;2023-04-22T11:45:25;30.60;42.40
75210;DHT22;63796;53.136;14.882;2023-04-22T11:47:54;30.50;42.20
75210;DHT22;63796;53.136;14.882;2023-04-22T11:50:26;31.10;40.80
75210;DHT22;63796;53.136;14.882;2023-04-22T11:52:59;30.70;41.90
75210;DHT22;63796;53.136;14.882;2023-04-22T11:55:33;32.70;39.90
75210;DHT22;63796;53.136;14.882;2023-04-22T11:58:05;30.70;39.70
75210;DHT22;63796;53.136;14.882;2023-04-22T12:03:04;31.70;40.40
75210;DHT22;63796;53.136;14.882;2023-04-22T12:08:12;29.40;41.90
75210;DHT22;63796;53.136;14.882;2023-04-22T12:10:46;29.00;42.60
75210;DHT22;63796;53.136;14.882;2023-04-22T12:15:47;31.50;41.00
75210;DHT22;63796;53.136;14.882;2023-04-22T12:18:15;28.50;43.90
75210;DHT22;63796;53.136;14.882;2023-04-22T12:20:42;30.10;41.90
75210;DHT22;63796;53.136;14.882;2023-04-22T12:23:13;30.60;41.80
75210;DHT22;63796;53.136;14.882;2023-04-22T12:25:41;31.10;41.10
75210;DHT22;63796;53.136;14.882;2023-04-22T12:28:09;30.90;42.30
75210;DHT22;63796;53.136;14.882;2023-04-22T12:30:37;32.10;40.50
75210;DHT22;63796;53.136;14.882;2023-04-22T12:33:04;31.20;42.20
75210;DHT22;63796;53.136;14.882;2023-04-22T12:35:32;29.30;42.50
75210;DHT22;63796;53.136;14.882;2023-04-22T12:38:00;30.10;42.50
75210;DHT22;63796;53.136;14.882;2023-04-22T12:40:27;29.10;43.40
75210;DHT22;63796;53.136;14.882;2023-04-22T12:42:55;30.10;41.20
75210;DHT22;63796;53.136;14.882;2023-04-22T12:45:22;31.60;41.40
75210;DHT22;63796;53.136;14.882;2023-04-22T12:47:51;29.90;40.70
75210;DHT22;63796;53.136;14.882;2023-04-22T12:50:21;30.10;41.80
75210;DHT22;63796;53.136;14.882;2023-04-22T12:52:48;29.80;44.10
75210;DHT22;63796;53.136;14.882;2023-04-22T12:55:16;28.10;42.50
75210;DHT22;63796;53.136;14.882;2023-04-22T12:57:44;28.00;45.10
75210;DHT22;63796;53.136;14.882;2023-04-22T13:00:12;28.40;43.10
75210;DHT22;63796;53.136;14.882;2023-04-22T13:02:43;27.90;43.10
75210;DHT22;63796;53.136;14.882;2023-04-22T13:05:12;28.00;44.00
75210;DHT22;63796;53.136;14.882;2023-04-22T13:07:40;26.20;46.80
75210;DHT22;63796;53.136;14.882;2023-04-22T13:10:09;25.30;46.80
75210;DHT22;63796;53.136;14.882;2023-04-22T13:12:39;25.20;47.60
75210;DHT22;63796;53.136;14.882;2023-04-22T13:15:08;24.60;49.40
75210;DHT22;63796;53.136;14.882;2023-04-22T13:17:36;24.80;48.80
75210;DHT22;63796;53.136;14.882;2023-04-22T13:20:05;24.30;50.60
75210;DHT22;63796;53.136;14.882;2023-04-22T13:22:35;23.80;51.70
75210;DHT22;63796;53.136;14.882;2023-04-22T13:25:03;24.00;55.10
75210;DHT22;63796;53.136;14.882;2023-04-22T13:27:31;22.90;51.90
75210;DHT22;63796;53.136;14.882;2023-04-22T13:29:58;22.50;52.10
75210;DHT22;63796;53.136;14.882;2023-04-22T13:32:25;22.30;52.60
75210;DHT22;63796;53.136;14.882;2023-04-22T13:34:53;22.50;51.90
75210;DHT22;63796;53.136;14.882;2023-04-22T13:37:20;22.30;51.70
75210;DHT22;63796;53.136;14.882;2023-04-22T13:39:49;22.60;52.10
75210;DHT22;63796;53.136;14.882;2023-04-22T13:42:16;22.70;53.80
75210;DHT22;63796;53.136;14.882;2023-04-22T13:44:44;22.50;52.00
75210;DHT22;63796;53.136;14.882;2023-04-22T13:47:11;22.50;51.40
75210;DHT22;63796;53.136;14.882;2023-04-22T13:49:38;22.20;53.30
75210;DHT22;63796;53.136;14.882;2023-04-22T13:52:06;21.90;53.50
75210;DHT22;63796;53.136;14.882;2023-04-22T13:54:35;21.70;54.10
75210;DHT22;63796;53.136;14.882;2023-04-22T13:57:02;21.90;53.40
75210;DHT22;63796;53.136;14.882;2023-04-22T13:59:30;21.90;52.90
75210;DHT22;63796;53.136;14.882;2023-04-22T14:01:57;21.60;55.00
75210;DHT22;63796;53.136;14.882;2023-04-22T14:04:25;21.50;52.70
75210;DHT22;63796;53.136;14.882;2023-04-22T14:06:52;21.70;52.60
75210;DHT22;63796;53.136;14.882;2023-04-22T14:09:20;21.90;52.70
75210;DHT22;63796;53.136;14.882;2023-04-22T14:11:47;21.50;54.40
75210;DHT22;63796;53.136;14.882;2023-04-22T14:14:14;21.40;53.00
75210;DHT22;63796;53.136;14.882;2023-04-22T14:16:42;21.50;53.60
75210;DHT22;63796;53.136;14.882;2023-04-22T14:19:09;21.50;54.10
75210;DHT22;63796;53.136;14.882;2023-04-22T14:21:37;21.50;52.90
75210;DHT22;63796;53.136;14.882;2023-04-22T14:24:04;21.20;52.70
75210;DHT22;63796;53.136;14.882;2023-04-22T14:26:32;21.40;53.00
75210;DHT22;63796;53.136;14.882;2023-04-22T14:28:59;21.50;55.20
75210;DHT22;63796;53.136;14.882;2023-04-22T14:31:27;21.10;53.00
75210;DHT22;63796;53.136;14.882;2023-04-22T14:33:55;21.40;53.30
75210;DHT22;63796;53.136;14.882;2023-04-22T14:36:22;21.30;53.00
75210;DHT22;63796;53.136;14.882;2023-04-22T14:38:50;21.20;53.30
75210;DHT22;63796;53.136;14.882;2023-04-22T14:41:17;21.10;52.20
75210;DHT22;63796;53.136;14.882;2023-04-22T14:43:44;21.20;53.30
75210;DHT22;63796;53.136;14.882;2023-04-22T14:46:13;21.20;52.30
75210;DHT22;63796;53.136;14.882;2023-04-22T14:48:40;21.30;52.20
75210;DHT22;63796;53.136;14.882;2023-04-22T14:51:08;21.30;52.20
75210;DHT22;63796;53.136;14.882;2023-04-22T14:53:39;21.30;52.70
75210;DHT22;63796;53.136;14.882;2023-04-22T14:56:07;21.20;57.50
75210;DHT22;63796;53.136;14.882;2023-04-22T14:58:34;21.30;53.70
75210;DHT22;63796;53.136;14.882;2023-04-22T15:01:02;21.30;52.70
75210;DHT22;63796;53.136;14.882;2023-04-22T15:03:31;21.20;54.40
75210;DHT22;63796;53.136;14.882;2023-04-22T15:06:00;21.10;53.50
75210;DHT22;63796;53.136;14.882;2023-04-22T15:08:27;21.10;54.40
75210;DHT22;63796;53.136;14.882;2023-04-22T15:10:54;20.90;52.90
75210;DHT22;63796;53.136;14.882;2023-04-22T15:13:22;21.00;54.30
75210;DHT22;63796;53.136;14.882;2023-04-22T15:15:50;21.10;53.60
75210;DHT22;63796;53.136;14.882;2023-04-22T15:18:17;21.10;54.20
75210;DHT22;63796;53.136;14.882;2023-04-22T15:20:45;20.90;52.50
75210;DHT22;63796;53.136;14.882;2023-04-22T15:23:12;20.90;51.00
75210;DHT22;63796;53.136;14.882;2023-04-22T15:25:39;21.00;51.10
75210;DHT22;63796;53.136;14.882;2023-04-22T15:28:08;21.00;51.70
75210;DHT22;63796;53.136;14.882;2023-04-22T15:30:36;21.00;52.40
75210;DHT22;63796;53.136;14.882;2023-04-22T15:33:03;21.00;53.60
75210;DHT22;63796;53.136;14.882;2023-04-22T15:35:31;20.90;55.00
75210;DHT22;63796;53.136;14.882;2023-04-22T15:37:58;20.90;53.90
75210;DHT22;63796;53.136;14.882;2023-04-22T15:40:27;21.00;55.80
75210;DHT22;63796;53.136;14.882;2023-04-22T15:42:54;20.90;53.50
75210;DHT22;63796;53.136;14.882;2023-04-22T15:45:21;20.80;53.70
75210;DHT22;63796;53.136;14.882;2023-04-22T15:47:49;20.90;55.10
75210;DHT22;63796;53.136;14.882;2023-04-22T15:50:18;20.70;54.30
75210;DHT22;63796;53.136;14.882;2023-04-22T15:52:45;20.70;56.60
75210;DHT22;63796;53.136;14.882;2023-04-22T15:55:13;20.70;55.20